Terminal Aerodrome Forecast
Issued by NWS

Home | Current Version | Previous Version | Text Only | Print | Product List | Glossary On
Versions: 1 2 3 4 5 6 7 8 9 10 11 12 13 14 15 16
000
FTAK31 PAJN 210500 RRA
TAFAYA
TAF
PAYA 210542Z 2106/2206 00000KT P6SM FEW080
     FM212100 21005KT P6SM SCT080
     FM220200 VRB03KT P6SM SCT080 SCT150
      AMD LTD TO CLD VIS AND WIND 2106/2110=

USA.gov is the U.S. government's official web portal to all federal, state and local government web resources and services.